sensor_id;sensor_type;location;lat;lon;timestamp;temperature;humidity
12817;DHT22;6473;51.552;6.716;2022-11-12T00:01:38;7.70;99.90
12817;DHT22;6473;51.552;6.716;2022-11-12T00:07:10;7.70;99.90
12817;DHT22;6473;51.552;6.716;2022-11-12T00:29:18;7.50;99.90
12817;DHT22;6473;51.552;6.716;2022-11-12T00:40:23;7.20;99.90
12817;DHT22;6473;51.552;6.716;2022-11-12T01:55:24;5.90;99.90
12817;DHT22;6473;51.552;6.716;2022-11-12T01:58:13;5.80;99.90
12817;DHT22;6473;51.552;6.716;2022-11-12T03:13:30;5.20;99.90
12817;DHT22;6473;51.552;6.716;2022-11-12T03:21:46;4.90;99.90
12817;DHT22;6473;51.552;6.716;2022-11-12T03:27:18;4.70;99.90
12817;DHT22;6473;51.552;6.716;2022-11-12T03:30:06;4.70;99.90
12817;DHT22;6473;51.552;6.716;2022-11-12T03:46:41;4.80;99.90
12817;DHT22;6473;51.552;6.716;2022-11-12T04:03:17;5.40;99.90
12817;DHT22;6473;51.552;6.716;2022-11-12T04:06:02;5.40;99.90
12817;DHT22;6473;51.552;6.716;2022-11-12T04:20:26;5.10;99.90
12817;DHT22;6473;51.552;6.716;2022-11-12T04:32:18;5.10;99.90
12817;DHT22;6473;51.552;6.716;2022-11-12T04:35:05;5.10;99.90
12817;DHT22;6473;51.552;6.716;2022-11-12T04:37:53;5.10;99.90
12817;DHT22;6473;51.552;6.716;2022-11-12T04:52:17;5.00;99.90
12817;DHT22;6473;51.552;6.716;2022-11-12T04:55:05;5.00;99.90
12817;DHT22;6473;51.552;6.716;2022-11-12T05:03:22;5.00;99.90
12817;DHT22;6473;51.552;6.716;2022-11-12T05:06:08;5.00;99.90
12817;DHT22;6473;51.552;6.716;2022-11-12T05:11:55;4.90;99.90
12817;DHT22;6473;51.552;6.716;2022-11-12T05:20:13;4.80;99.90
12817;DHT22;6473;51.552;6.716;2022-11-12T05:28:32;4.80;99.90
12817;DHT22;6473;51.552;6.716;2022-11-12T05:45:08;4.60;99.90
12817;DHT22;6473;51.552;6.716;2022-11-12T06:01:43;4.30;99.90
12817;DHT22;6473;51.552;6.716;2022-11-12T06:10:01;4.40;99.90
12817;DHT22;6473;51.552;6.716;2022-11-12T06:18:20;4.40;99.90
12817;DHT22;6473;51.552;6.716;2022-11-12T06:21:08;4.40;99.90
12817;DHT22;6473;51.552;6.716;2022-11-12T06:35:16;4.20;99.90
12817;DHT22;6473;51.552;6.716;2022-11-12T06:51:53;4.20;99.90
12817;DHT22;6473;51.552;6.716;2022-11-12T07:00:10;4.30;99.90
12817;DHT22;6473;51.552;6.716;2022-11-12T07:08:29;4.40;99.90
12817;DHT22;6473;51.552;6.716;2022-11-12T07:25:06;4.20;99.90
12817;DHT22;6473;51.552;6.716;2022-11-12T07:36:11;4.40;99.90
12817;DHT22;6473;51.552;6.716;2022-11-12T07:41:45;4.60;99.90
12817;DHT22;6473;51.552;6.716;2022-11-12T07:50:03;4.80;99.90
12817;DHT22;6473;51.552;6.716;2022-11-12T07:58:22;5.00;99.90
12817;DHT22;6473;51.552;6.716;2022-11-12T08:01:10;5.20;99.90
12817;DHT22;6473;51.552;6.716;2022-11-12T08:09:30;6.10;99.90
12817;DHT22;6473;51.552;6.716;2022-11-12T08:15:03;6.60;99.90
12817;DHT22;6473;51.552;6.716;2022-11-12T08:26:08;8.30;99.90
12817;DHT22;6473;51.552;6.716;2022-11-12T08:31:42;9.60;99.90
12817;DHT22;6473;51.552;6.716;2022-11-12T08:37:13;10.90;99.90
12817;DHT22;6473;51.552;6.716;2022-11-12T08:39:58;11.30;99.90
12817;DHT22;6473;51.552;6.716;2022-11-12T08:45:31;12.20;99.90
12817;DHT22;6473;51.552;6.716;2022-11-12T08:48:18;12.50;99.20
12817;DHT22;6473;51.552;6.716;2022-11-12T08:51:04;12.90;95.70
12817;DHT22;6473;51.552;6.716;2022-11-12T09:02:11;13.80;72.90
12817;DHT22;6473;51.552;6.716;2022-11-12T09:04:58;14.30;65.50
12817;DHT22;6473;51.552;6.716;2022-11-12T09:16:03;13.00;44.80
12817;DHT22;6473;51.552;6.716;2022-11-12T09:21:36;13.00;44.10
12817;DHT22;6473;51.552;6.716;2022-11-12T09:38:12;13.10;33.50
12817;DHT22;6473;51.552;6.716;2022-11-12T09:41:13;13.30;28.40
12817;DHT22;6473;51.552;6.716;2022-11-12T09:44:01;13.40;25.50
12817;DHT22;6473;51.552;6.716;2022-11-12T09:46:51;13.50;25.20
12817;DHT22;6473;51.552;6.716;2022-11-12T09:49:42;13.60;20.90
12817;DHT22;6473;51.552;6.716;2022-11-12T09:55:24;13.70;19.80
12817;DHT22;6473;51.552;6.716;2022-11-12T09:58:14;13.80;17.10
12817;DHT22;6473;51.552;6.716;2022-11-12T10:03:54;14.10;17.70
12817;DHT22;6473;51.552;6.716;2022-11-12T10:06:46;14.20;13.10
12817;DHT22;6473;51.552;6.716;2022-11-12T10:09:42;14.30;13.90
12817;DHT22;6473;51.552;6.716;2022-11-12T10:12:41;14.40;10.30
12817;DHT22;6473;51.552;6.716;2022-11-12T10:15:37;14.50;13.60
12817;DHT22;6473;51.552;6.716;2022-11-12T10:18:52;14.90;3.30
12817;DHT22;6473;51.552;6.716;2022-11-12T10:21:44;15.20;4.20
12817;DHT22;6473;51.552;6.716;2022-11-12T10:24:33;16.10;1.00
12817;DHT22;6473;51.552;6.716;2022-11-12T10:27:20;16.70;1.00
12817;DHT22;6473;51.552;6.716;2022-11-12T10:30:16;17.30;1.00
12817;DHT22;6473;51.552;6.716;2022-11-12T10:38:34;17.70;1.00
12817;DHT22;6473;51.552;6.716;2022-11-12T10:41:24;17.30;1.00
12817;DHT22;6473;51.552;6.716;2022-11-12T10:44:13;16.70;1.00
12817;DHT22;6473;51.552;6.716;2022-11-12T10:47:22;16.30;1.00
12817;DHT22;6473;51.552;6.716;2022-11-12T10:50:20;16.50;1.00
12817;DHT22;6473;51.552;6.716;2022-11-12T10:53:10;16.50;1.00
12817;DHT22;6473;51.552;6.716;2022-11-12T10:55:57;17.00;1.00
12817;DHT22;6473;51.552;6.716;2022-11-12T11:01:31;17.10;1.00
12817;DHT22;6473;51.552;6.716;2022-11-12T11:04:29;16.80;1.00
12817;DHT22;6473;51.552;6.716;2022-11-12T11:07:20;16.80;1.00
12817;DHT22;6473;51.552;6.716;2022-11-12T11:10:22;16.40;1.00
12817;DHT22;6473;51.552;6.716;2022-11-12T11:13:17;16.30;1.00
12817;DHT22;6473;51.552;6.716;2022-11-12T11:16:05;16.60;1.00
12817;DHT22;6473;51.552;6.716;2022-11-12T11:18:53;17.20;1.00
12817;DHT22;6473;51.552;6.716;2022-11-12T11:22:16;17.90;1.00
12817;DHT22;6473;51.552;6.716;2022-11-12T11:25:14;18.00;1.00
12817;DHT22;6473;51.552;6.716;2022-11-12T11:28:16;18.10;1.00
12817;DHT22;6473;51.552;6.716;2022-11-12T11:31:14;17.30;1.00
12817;DHT22;6473;51.552;6.716;2022-11-12T11:34:15;17.10;1.00
12817;DHT22;6473;51.552;6.716;2022-11-12T11:37:11;17.00;1.00
12817;DHT22;6473;51.552;6.716;2022-11-12T11:40:09;17.30;1.00
12817;DHT22;6473;51.552;6.716;2022-11-12T11:46:21;17.30;1.00
12817;DHT22;6473;51.552;6.716;2022-11-12T11:49:29;16.90;1.00
12817;DHT22;6473;51.552;6.716;2022-11-12T11:52:33;12.70;1.00
12817;DHT22;6473;51.552;6.716;2022-11-12T11:55:35;16.90;1.00
12817;DHT22;6473;51.552;6.716;2022-11-12T12:01:57;16.90;1.00
12817;DHT22;6473;51.552;6.716;2022-11-12T12:04:47;16.90;1.00
12817;DHT22;6473;51.552;6.716;2022-11-12T12:07:39;17.20;1.00
12817;DHT22;6473;51.552;6.716;2022-11-12T12:10:34;17.30;1.00
12817;DHT22;6473;51.552;6.716;2022-11-12T12:13:28;17.10;1.00
12817;DHT22;6473;51.552;6.716;2022-11-12T12:16:24;17.40;1.00
12817;DHT22;6473;51.552;6.716;2022-11-12T12:19:24;17.80;1.00
12817;DHT22;6473;51.552;6.716;2022-11-12T12:22:14;18.10;1.00
12817;DHT22;6473;51.552;6.716;2022-11-12T12:25:04;17.60;1.00
12817;DHT22;6473;51.552;6.716;2022-11-12T12:28:00;17.50;1.00
12817;DHT22;6473;51.552;6.716;2022-11-12T12:30:51;17.30;1.00
12817;DHT22;6473;51.552;6.716;2022-11-12T12:33:43;17.40;1.00
12817;DHT22;6473;51.552;6.716;2022-11-12T12:36:35;17.60;1.00
12817;DHT22;6473;51.552;6.716;2022-11-12T12:39:25;17.90;1.00
12817;DHT22;6473;51.552;6.716;2022-11-12T12:42:14;18.60;1.00
12817;DHT22;6473;51.552;6.716;2022-11-12T12:45:32;18.70;1.00
12817;DHT22;6473;51.552;6.716;2022-11-12T12:48:21;18.70;1.00
12817;DHT22;6473;51.552;6.716;2022-11-12T12:56:44;19.40;1.00
12817;DHT22;6473;51.552;6.716;2022-11-12T13:02:21;19.80;1.00
12817;DHT22;6473;51.552;6.716;2022-11-12T13:05:30;20.10;1.00
12817;DHT22;6473;51.552;6.716;2022-11-12T13:08:19;20.30;1.00
12817;DHT22;6473;51.552;6.716;2022-11-12T13:11:07;20.60;1.00
12817;DHT22;6473;51.552;6.716;2022-11-12T13:16:55;21.50;1.00
12817;DHT22;6473;51.552;6.716;2022-11-12T13:19:46;21.60;1.00
12817;DHT22;6473;51.552;6.716;2022-11-12T13:22:48;21.70;1.00
12817;DHT22;6473;51.552;6.716;2022-11-12T13:31:24;22.40;1.00
12817;DHT22;6473;51.552;6.716;2022-11-12T13:34:29;21.90;1.00
12817;DHT22;6473;51.552;6.716;2022-11-12T13:37:20;22.10;1.00
12817;DHT22;6473;51.552;6.716;2022-11-12T13:40:12;22.30;1.00
12817;DHT22;6473;51.552;6.716;2022-11-12T13:43:04;21.80;1.00
12817;DHT22;6473;51.552;6.716;2022-11-12T13:45:53;22.00;1.00
12817;DHT22;6473;51.552;6.716;2022-11-12T13:48:41;22.10;1.00
12817;DHT22;6473;51.552;6.716;2022-11-12T13:51:34;22.20;1.00
12817;DHT22;6473;51.552;6.716;2022-11-12T13:54:36;22.20;1.00
12817;DHT22;6473;51.552;6.716;2022-11-12T13:57:28;21.80;1.00
12817;DHT22;6473;51.552;6.716;2022-11-12T14:00:23;22.00;1.00
12817;DHT22;6473;51.552;6.716;2022-11-12T14:03:16;22.10;1.00
12817;DHT22;6473;51.552;6.716;2022-11-12T14:06:07;22.40;1.00
12817;DHT22;6473;51.552;6.716;2022-11-12T14:09:11;21.90;1.00
12817;DHT22;6473;51.552;6.716;2022-11-12T14:12:11;22.00;1.00
12817;DHT22;6473;51.552;6.716;2022-11-12T14:15:25;22.10;1.00
12817;DHT22;6473;51.552;6.716;2022-11-12T14:18:19;22.00;1.00
12817;DHT22;6473;51.552;6.716;2022-11-12T14:21:14;21.80;1.00
12817;DHT22;6473;51.552;6.716;2022-11-12T14:24:01;20.90;1.00
12817;DHT22;6473;51.552;6.716;2022-11-12T14:29:33;19.60;1.00
12817;DHT22;6473;51.552;6.716;2022-11-12T14:35:18;18.90;1.00
12817;DHT22;6473;51.552;6.716;2022-11-12T14:38:10;18.50;1.00
12817;DHT22;6473;51.552;6.716;2022-11-12T14:40:58;18.20;1.00
12817;DHT22;6473;51.552;6.716;2022-11-12T14:43:46;18.00;1.00
12817;DHT22;6473;51.552;6.716;2022-11-12T14:46:37;18.10;1.00
12817;DHT22;6473;51.552;6.716;2022-11-12T14:52:16;17.90;1.00
12817;DHT22;6473;51.552;6.716;2022-11-12T14:55:07;18.10;1.00
12817;DHT22;6473;51.552;6.716;2022-11-12T15:00:43;17.80;1.00
12817;DHT22;6473;51.552;6.716;2022-11-12T15:03:31;17.70;1.00
12817;DHT22;6473;51.552;6.716;2022-11-12T15:06:21;17.30;1.00
12817;DHT22;6473;51.552;6.716;2022-11-12T15:09:15;17.30;1.00
12817;DHT22;6473;51.552;6.716;2022-11-12T15:12:04;15.40;1.00
12817;DHT22;6473;51.552;6.716;2022-11-12T15:20:26;16.40;1.00
12817;DHT22;6473;51.552;6.716;2022-11-12T15:23:16;16.20;1.00
12817;DHT22;6473;51.552;6.716;2022-11-12T15:31:46;15.90;1.00
12817;DHT22;6473;51.552;6.716;2022-11-12T15:34:43;15.90;2.00
12817;DHT22;6473;51.552;6.716;2022-11-12T15:37:40;15.80;3.00
12817;DHT22;6473;51.552;6.716;2022-11-12T15:43:15;15.60;12.10
12817;DHT22;6473;51.552;6.716;2022-11-12T15:54:20;14.90;29.40
12817;DHT22;6473;51.552;6.716;2022-11-12T15:57:07;14.70;39.60
12817;DHT22;6473;51.552;6.716;2022-11-12T15:59:58;14.60;53.90
12817;DHT22;6473;51.552;6.716;2022-11-12T16:08:19;13.90;70.10
12817;DHT22;6473;51.552;6.716;2022-11-12T16:25:18;13.10;87.90
12817;DHT22;6473;51.552;6.716;2022-11-12T16:28:09;12.80;92.30
12817;DHT22;6473;51.552;6.716;2022-11-12T16:36:30;12.30;99.90
12817;DHT22;6473;51.552;6.716;2022-11-12T16:39:16;12.20;99.90
12817;DHT22;6473;51.552;6.716;2022-11-12T16:44:52;12.00;99.90
12817;DHT22;6473;51.552;6.716;2022-11-12T16:47:42;11.90;99.90
12817;DHT22;6473;51.552;6.716;2022-11-12T16:58:47;11.60;99.90
12817;DHT22;6473;51.552;6.716;2022-11-12T17:01:34;11.50;99.90
12817;DHT22;6473;51.552;6.716;2022-11-12T17:04:22;11.40;99.90
12817;DHT22;6473;51.552;6.716;2022-11-12T17:18:12;11.10;99.90
12817;DHT22;6473;51.552;6.716;2022-11-12T17:21:06;11.00;99.90
12817;DHT22;6473;51.552;6.716;2022-11-12T17:23:53;10.90;99.90
12817;DHT22;6473;51.552;6.716;2022-11-12T17:34:58;10.80;99.90
12817;DHT22;6473;51.552;6.716;2022-11-12T17:46:01;10.40;99.90
12817;DHT22;6473;51.552;6.716;2022-11-12T17:51:34;10.40;99.90
12817;DHT22;6473;51.552;6.716;2022-11-12T17:54:20;10.40;99.90
12817;DHT22;6473;51.552;6.716;2022-11-12T18:08:12;10.30;99.90
12817;DHT22;6473;51.552;6.716;2022-11-12T18:13:45;10.10;99.90
12817;DHT22;6473;51.552;6.716;2022-11-12T18:16:32;10.00;99.90
12817;DHT22;6473;51.552;6.716;2022-11-12T18:19:18;10.00;99.90
12817;DHT22;6473;51.552;6.716;2022-11-12T18:22:03;9.90;99.90
12817;DHT22;6473;51.552;6.716;2022-11-12T18:24:50;9.90;99.90
12817;DHT22;6473;51.552;6.716;2022-11-12T18:27:36;9.90;99.90
12817;DHT22;6473;51.552;6.716;2022-11-12T18:30:22;9.80;99.90
12817;DHT22;6473;51.552;6.716;2022-11-12T18:33:07;9.70;99.90
12817;DHT22;6473;51.552;6.716;2022-11-12T18:35:59;9.60;99.90
12817;DHT22;6473;51.552;6.716;2022-11-12T18:38:45;9.60;99.90
12817;DHT22;6473;51.552;6.716;2022-11-12T18:41:34;9.70;99.90
12817;DHT22;6473;51.552;6.716;2022-11-12T18:44:20;9.60;99.90
12817;DHT22;6473;51.552;6.716;2022-11-12T18:47:05;9.50;99.90
12817;DHT22;6473;51.552;6.716;2022-11-12T18:49:51;9.50;99.90
12817;DHT22;6473;51.552;6.716;2022-11-12T18:52:36;9.40;99.90
12817;DHT22;6473;51.552;6.716;2022-11-12T18:55:22;9.50;99.90
12817;DHT22;6473;51.552;6.716;2022-11-12T18:58:09;9.40;99.90
12817;DHT22;6473;51.552;6.716;2022-11-12T19:00:54;9.40;99.90
12817;DHT22;6473;51.552;6.716;2022-11-12T19:03:39;9.30;99.90
12817;DHT22;6473;51.552;6.716;2022-11-12T19:06:25;9.30;99.90
12817;DHT22;6473;51.552;6.716;2022-11-12T19:09:11;9.30;99.90
12817;DHT22;6473;51.552;6.716;2022-11-12T19:11:58;9.30;99.90
12817;DHT22;6473;51.552;6.716;2022-11-12T19:14:45;9.30;99.90
12817;DHT22;6473;51.552;6.716;2022-11-12T19:17:30;9.30;99.90
12817;DHT22;6473;51.552;6.716;2022-11-12T19:20:16;9.40;99.90
12817;DHT22;6473;51.552;6.716;2022-11-12T19:23:01;9.50;99.90
12817;DHT22;6473;51.552;6.716;2022-11-12T19:25:47;9.40;99.90
12817;DHT22;6473;51.552;6.716;2022-11-12T19:28:33;9.40;99.90
12817;DHT22;6473;51.552;6.716;2022-11-12T19:31:23;9.40;99.90
12817;DHT22;6473;51.552;6.716;2022-11-12T19:34:09;9.40;99.90
12817;DHT22;6473;51.552;6.716;2022-11-12T19:36:54;9.40;99.90
12817;DHT22;6473;51.552;6.716;2022-11-12T19:39:40;9.40;99.90
12817;DHT22;6473;51.552;6.716;2022-11-12T19:42:25;9.40;99.90
12817;DHT22;6473;51.552;6.716;2022-11-12T19:45:11;9.40;99.90
12817;DHT22;6473;51.552;6.716;2022-11-12T19:47:58;9.50;99.90
12817;DHT22;6473;51.552;6.716;2022-11-12T19:50:44;9.40;99.90
12817;DHT22;6473;51.552;6.716;2022-11-12T19:53:30;9.40;99.90
12817;DHT22;6473;51.552;6.716;2022-11-12T19:56:15;9.40;99.90
12817;DHT22;6473;51.552;6.716;2022-11-12T19:59:01;9.50;99.90
12817;DHT22;6473;51.552;6.716;2022-11-12T20:01:47;9.40;99.90
12817;DHT22;6473;51.552;6.716;2022-11-12T20:04:34;9.40;99.90
12817;DHT22;6473;51.552;6.716;2022-11-12T20:07:19;9.40;99.90
12817;DHT22;6473;51.552;6.716;2022-11-12T20:10:05;9.40;99.90
12817;DHT22;6473;51.552;6.716;2022-11-12T20:12:50;9.30;99.90
12817;DHT22;6473;51.552;6.716;2022-11-12T20:15:37;9.30;99.90
12817;DHT22;6473;51.552;6.716;2022-11-12T20:18:23;9.30;99.90
12817;DHT22;6473;51.552;6.716;2022-11-12T20:21:10;9.30;99.90
12817;DHT22;6473;51.552;6.716;2022-11-12T20:23:55;9.30;99.90
12817;DHT22;6473;51.552;6.716;2022-11-12T20:26:40;9.30;99.90
12817;DHT22;6473;51.552;6.716;2022-11-12T20:29:26;9.30;99.90
12817;DHT22;6473;51.552;6.716;2022-11-12T20:32:11;9.20;99.90
12817;DHT22;6473;51.552;6.716;2022-11-12T20:34:57;9.20;99.90
12817;DHT22;6473;51.552;6.716;2022-11-12T20:37:44;9.20;99.90
12817;DHT22;6473;51.552;6.716;2022-11-12T20:40:30;9.20;99.90
12817;DHT22;6473;51.552;6.716;2022-11-12T20:43:16;9.30;99.90
12817;DHT22;6473;51.552;6.716;2022-11-12T20:46:01;9.20;99.90
12817;DHT22;6473;51.552;6.716;2022-11-12T20:48:47;9.30;99.90
12817;DHT22;6473;51.552;6.716;2022-11-12T20:51:33;9.20;99.90
12817;DHT22;6473;51.552;6.716;2022-11-12T20:54:20;9.30;99.90
12817;DHT22;6473;51.552;6.716;2022-11-12T20:57:06;9.20;99.90
12817;DHT22;6473;51.552;6.716;2022-11-12T20:59:51;9.10;99.90
12817;DHT22;6473;51.552;6.716;2022-11-12T21:02:36;9.10;99.90
12817;DHT22;6473;51.552;6.716;2022-11-12T21:05:22;9.20;99.90
12817;DHT22;6473;51.552;6.716;2022-11-12T21:08:08;9.10;99.90
12817;DHT22;6473;51.552;6.716;2022-11-12T21:10:55;9.10;99.90
12817;DHT22;6473;51.552;6.716;2022-11-12T21:13:41;9.10;99.90
12817;DHT22;6473;51.552;6.716;2022-11-12T21:16:26;9.20;99.90
12817;DHT22;6473;51.552;6.716;2022-11-12T21:19:12;9.20;99.90
12817;DHT22;6473;51.552;6.716;2022-11-12T21:21:58;9.20;99.90
12817;DHT22;6473;51.552;6.716;2022-11-12T21:24:43;9.10;99.90
12817;DHT22;6473;51.552;6.716;2022-11-12T21:27:31;9.20;99.90
12817;DHT22;6473;51.552;6.716;2022-11-12T21:30:16;9.30;99.90
12817;DHT22;6473;51.552;6.716;2022-11-12T21:33:03;9.30;99.90
12817;DHT22;6473;51.552;6.716;2022-11-12T21:35:50;9.30;99.90
12817;DHT22;6473;51.552;6.716;2022-11-12T21:38:36;9.20;99.90
12817;DHT22;6473;51.552;6.716;2022-11-12T21:41:23;9.20;99.90
12817;DHT22;6473;51.552;6.716;2022-11-12T21:44:11;9.20;99.90
12817;DHT22;6473;51.552;6.716;2022-11-12T21:47:00;9.20;99.90
12817;DHT22;6473;51.552;6.716;2022-11-12T21:52:34;9.10;99.90
12817;DHT22;6473;51.552;6.716;2022-11-12T21:55:20;9.00;99.90
12817;DHT22;6473;51.552;6.716;2022-11-12T21:58:05;9.00;99.90
12817;DHT22;6473;51.552;6.716;2022-11-12T22:00:52;8.90;99.90
12817;DHT22;6473;51.552;6.716;2022-11-12T22:03:38;8.90;99.90
12817;DHT22;6473;51.552;6.716;2022-11-12T22:06:25;8.90;99.90
12817;DHT22;6473;51.552;6.716;2022-11-12T22:09:11;9.00;99.90
12817;DHT22;6473;51.552;6.716;2022-11-12T22:11:56;8.90;99.90
12817;DHT22;6473;51.552;6.716;2022-11-12T22:14:42;9.00;99.90
12817;DHT22;6473;51.552;6.716;2022-11-12T22:17:31;8.90;99.90
12817;DHT22;6473;51.552;6.716;2022-11-12T22:20:17;8.90;99.90
12817;DHT22;6473;51.552;6.716;2022-11-12T22:23:03;8.80;99.90
12817;DHT22;6473;51.552;6.716;2022-11-12T22:25:49;8.70;99.90
12817;DHT22;6473;51.552;6.716;2022-11-12T22:28:34;8.50;99.90
12817;DHT22;6473;51.552;6.716;2022-11-12T22:31:21;8.40;99.90
12817;DHT22;6473;51.552;6.716;2022-11-12T22:34:09;8.40;99.90
12817;DHT22;6473;51.552;6.716;2022-11-12T22:36:54;8.40;99.90
12817;DHT22;6473;51.552;6.716;2022-11-12T22:39:40;8.30;99.90
12817;DHT22;6473;51.552;6.716;2022-11-12T22:42:25;8.40;99.90
12817;DHT22;6473;51.552;6.716;2022-11-12T22:45:11;8.20;99.90
12817;DHT22;6473;51.552;6.716;2022-11-12T22:47:57;8.10;99.90
12817;DHT22;6473;51.552;6.716;2022-11-12T22:50:44;8.10;99.90
12817;DHT22;6473;51.552;6.716;2022-11-12T22:53:30;8.10;99.90
12817;DHT22;6473;51.552;6.716;2022-11-12T22:56:16;8.10;99.90
12817;DHT22;6473;51.552;6.716;2022-11-12T22:59:01;8.10;99.90
12817;DHT22;6473;51.552;6.716;2022-11-12T23:01:48;8.00;99.90
12817;DHT22;6473;51.552;6.716;2022-11-12T23:04:33;8.00;99.90
12817;DHT22;6473;51.552;6.716;2022-11-12T23:07:20;7.90;99.90
12817;DHT22;6473;51.552;6.716;2022-11-12T23:10:07;7.90;99.90
12817;DHT22;6473;51.552;6.716;2022-11-12T23:12:54;7.90;99.90
12817;DHT22;6473;51.552;6.716;2022-11-12T23:15:41;7.90;99.90
12817;DHT22;6473;51.552;6.716;2022-11-12T23:18:27;7.80;99.90
12817;DHT22;6473;51.552;6.716;2022-11-12T23:21:14;7.80;99.90
12817;DHT22;6473;51.552;6.716;2022-11-12T23:24:01;7.90;99.90
12817;DHT22;6473;51.552;6.716;2022-11-12T23:26:47;7.90;99.90
12817;DHT22;6473;51.552;6.716;2022-11-12T23:32:18;7.80;99.90
12817;DHT22;6473;51.552;6.716;2022-11-12T23:35:05;7.80;99.90
12817;DHT22;6473;51.552;6.716;2022-11-12T23:37:51;7.70;99.90
12817;DHT22;6473;51.552;6.716;2022-11-12T23:40:38;7.80;99.90
12817;DHT22;6473;51.552;6.716;2022-11-12T23:43:24;7.50;99.90
12817;DHT22;6473;51.552;6.716;2022-11-12T23:46:10;7.40;99.90
12817;DHT22;6473;51.552;6.716;2022-11-12T23:48:56;7.40;99.90
12817;DHT22;6473;51.552;6.716;2022-11-12T23:51:41;7.40;99.90
12817;DHT22;6473;51.552;6.716;2022-11-12T23:54:27;7.30;99.90
12817;DHT22;6473;51.552;6.716;2022-11-12T23:57:14;7.40;99.90
12817;DHT22;6473;51.552;6.716;2022-11-12T23:59:59;7.30;99.90
